首页
METAR-TAF:

METAR-TAF

机场 :

Greater Rochester International Airport

羅徹斯特, 紐約州, 美国

纬度: 43-07-00N, 经度: 077-40-36W, 海拔: 170米

当前天气观测

该预报发布于1小时和0分钟前的05:54 UTC
风速5节,风向
温度 2°C
湿度 64%
气压 1014 hPa
能見度: 16.1公里
少量云层高于8000英尺
少量云层高于14000英尺

METAR: KROC 020554Z 10005KT 10SM FEW080 FEW140 02/M04 A2993 RMK AO2 SLP144 T00221044 10067 20011 55002 $

时间: 02:54 (06:54 UTC)

预报

该预报发布于1小时和23分钟前的05:31 UTC
预报有效从02日的 06点(UTC)到 03日的 06点(UTC)
风速4节,风向西转西南
能見度: 10公里
散云层高于12000英尺
从 02日的 1600点(UTC)
风速10节,风向北转西北,有时为16节阵风
能見度: 10公里
散云层高于7000英尺
从 02日的 1800点(UTC)
风速11节,风向西北,有时为17节阵风
能見度: 10公里
散云层高于6000英尺
从 02日的 2300点(UTC)
风速12节,风向西北
能見度: 10公里
多云层高于7000英尺

TAF: KROC 020531Z 0206/0306 25004KT P6SM SCT120 FM021600 33010G16KT P6SM SCT070 FM021800 32011G17KT P6SM SCT060 FM022300 31012KT P6SM BKN070

超过4000个机场的气象观测和天气预报(METAR&TAF报告)。

可查询的气象台以黄色和红色小点在地图上表示。

将鼠标移到小点上方,可查看气象台名称。

然后点击查看天气观测和预报。

如需切换地图:点击带黑十字的绿色按钮放大地图;点击带横线的绿色按钮缩小地图;或者点击绿色箭头查看邻近地区的地图。


METAR-TAF: